Shevchenko, Kazakhstan
Current Conditions -  °F | °C
As of 2:30 PM on Tuesday 21 Oct 2014 (Local Time) from UATE Reporting Station
Overcast Overcast  
Wind Chill: 52°   Ceiling: 4600
Heat Index: 52°   Visibility: 6mi
Dew Point: 34°   Wind: 18mph
Humidity: 50%   Direction: 130°SE
Pressure: 29.97"   Gusts: NA
Location:  43.64°N, 51.17°E
Report Text: UATE 211030Z 13008MPS 9999 OVC046 11/01 Q1015 R12/0///70 NOSIGRMK QFE759/1013
Loading
Personal Weather Stations






























Interactive Weather Map
Tropical Storm Tracking
New forecast layout! Learn more

10-Day Weather Forecast

Advertisements
Track Severe Weather on mobile